createdAt,value
2022-10-08T00:00:46.140Z,17.60
2022-10-08T00:01:48.776Z,18.52
2022-10-08T00:02:50.544Z,21.02
2022-10-08T00:03:54.119Z,29.63
2022-10-08T00:04:55.967Z,22.48
2022-10-08T00:06:04.770Z,25.55
2022-10-08T00:07:07.598Z,24.77
2022-10-08T00:08:10.041Z,18.08
2022-10-08T00:09:11.717Z,26.73
2022-10-08T00:10:13.394Z,18.52
2022-10-08T00:11:17.985Z,19.15
2022-10-08T00:12:19.633Z,16.63
2022-10-08T00:13:22.136Z,21.42
2022-10-08T00:14:23.789Z,17.70
2022-10-08T00:15:26.163Z,20.38
2022-10-08T00:16:29.292Z,18.70
2022-10-08T00:17:31.028Z,17.00
2022-10-08T00:18:32.653Z,16.35
2022-10-08T00:19:34.350Z,17.40
2022-10-08T00:20:36.004Z,20.33
2022-10-08T00:21:39.717Z,25.98
2022-10-08T00:22:41.397Z,19.08
2022-10-08T00:23:44.376Z,17.08
2022-10-08T00:24:46.483Z,22.42
2022-10-08T00:25:48.190Z,19.15
2022-10-08T00:26:50.574Z,14.75
2022-10-08T00:27:52.276Z,16.57
2022-10-08T00:28:56.361Z,19.35
2022-10-08T00:29:58.073Z,19.83
2022-10-08T00:31:09.515Z,14.38
2022-10-08T00:32:12.262Z,15.38
2022-10-08T00:33:14.064Z,18.48
2022-10-08T00:34:18.661Z,17.58
2022-10-08T00:35:20.289Z,20.63
2022-10-08T00:36:23.627Z,30.25
2022-10-08T00:37:26.705Z,19.75
2022-10-08T00:38:28.394Z,24.70
2022-10-08T00:39:32.475Z,20.60
2022-10-08T00:40:42.876Z,19.17
2022-10-08T00:41:48.151Z,21.40
2022-10-08T00:42:50.060Z,17.83
2022-10-08T00:43:54.763Z,20.35
2022-10-08T00:45:00.893Z,22.90
2022-10-08T00:46:03.665Z,16.70
2022-10-08T00:47:05.897Z,22.98
2022-10-08T00:48:12.940Z,29.55
2022-10-08T00:49:17.950Z,20.97
2022-10-08T00:50:46.498Z,15.88
2022-10-08T00:51:54.522Z,12.60
2022-10-08T00:53:01.270Z,18.98
2022-10-08T00:54:04.374Z,13.65
2022-10-08T00:55:07.707Z,20.90
2022-10-08T00:56:09.435Z,12.25
2022-10-08T00:57:12.035Z,10.65
2022-10-08T00:58:21.420Z,13.35
2022-10-08T00:59:23.897Z,10.68
2022-10-08T01:00:26.333Z,16.37
2022-10-08T01:01:29.710Z,13.32
2022-10-08T01:02:31.760Z,18.02
2022-10-08T01:03:33.488Z,12.77
2022-10-08T01:04:36.385Z,11.75
2022-10-08T01:05:55.497Z,15.85
2022-10-08T01:07:11.475Z,17.25
2022-10-08T01:08:31.997Z,19.65
2022-10-08T01:09:57.136Z,13.10
2022-10-08T01:11:14.653Z,16.85
2022-10-08T01:12:36.485Z,15.07
2022-10-08T01:13:46.637Z,13.50
2022-10-08T01:14:53.934Z,18.38
2022-10-08T01:16:08.161Z,15.15
2022-10-08T01:17:34.034Z,14.02
2022-10-08T01:19:04.775Z,10.77
2022-10-08T01:20:29.339Z,18.33
2022-10-08T01:21:39.808Z,10.80
2022-10-08T01:22:44.690Z,17.58
2022-10-08T01:24:04.427Z,10.10
2022-10-08T01:25:34.335Z,22.73
2022-10-08T01:26:57.400Z,12.77
2022-10-08T01:28:07.840Z,16.40
2022-10-08T01:29:18.426Z,23.35
2022-10-08T01:30:20.668Z,18.67
2022-10-08T01:31:31.038Z,9.57
2022-10-08T01:32:41.425Z,16.40
2022-10-08T01:33:58.982Z,12.43
2022-10-08T01:35:05.283Z,16.10
2022-10-08T01:36:08.320Z,18.92
2022-10-08T01:37:19.081Z,18.07
2022-10-08T01:38:23.764Z,18.85
2022-10-08T01:39:31.305Z,12.60
2022-10-08T01:40:36.364Z,14.63
2022-10-08T01:41:40.294Z,15.90
2022-10-08T01:42:42.477Z,13.45
2022-10-08T01:43:50.941Z,12.38
2022-10-08T01:44:58.258Z,15.15
2022-10-08T01:46:28.983Z,13.25
2022-10-08T01:47:31.325Z,24.33
2022-10-08T01:48:36.617Z,15.13
2022-10-08T01:49:52.862Z,18.27
2022-10-08T01:51:06.549Z,14.45
2022-10-08T01:52:20.074Z,17.73
2022-10-08T01:53:26.444Z,13.35
2022-10-08T01:54:31.838Z,11.23
2022-10-08T01:55:45.539Z,16.98
2022-10-08T01:56:48.152Z,14.98
2022-10-08T01:57:51.581Z,17.73
2022-10-08T01:59:03.177Z,13.55
2022-10-08T02:00:15.179Z,17.40
2022-10-08T02:01:37.908Z,13.43
2022-10-08T02:02:40.565Z,19.38
2022-10-08T02:04:02.332Z,13.73
2022-10-08T02:05:05.000Z,15.98
2022-10-08T02:06:07.861Z,16.20
2022-10-08T02:07:17.521Z,15.95
2022-10-08T02:08:19.230Z,16.35
2022-10-08T02:09:22.846Z,11.60
2022-10-08T02:10:26.228Z,14.00
2022-10-08T02:11:28.804Z,14.37
2022-10-08T02:12:31.591Z,12.10
2022-10-08T02:13:33.298Z,16.65
2022-10-08T02:14:37.976Z,15.70
2022-10-08T02:16:04.468Z,16.13
2022-10-08T02:17:15.875Z,9.95
2022-10-08T02:18:22.900Z,18.42
2022-10-08T02:19:36.853Z,12.88
2022-10-08T02:20:59.190Z,13.63
2022-10-08T02:22:03.540Z,11.43
2022-10-08T02:23:31.776Z,13.93
2022-10-08T02:24:43.153Z,13.60
2022-10-08T02:25:57.201Z,13.77
2022-10-08T02:27:04.474Z,13.10
2022-10-08T02:28:16.813Z,14.82
2022-10-08T02:29:24.508Z,15.55
2022-10-08T02:30:31.868Z,14.50
2022-10-08T02:31:41.527Z,14.68
2022-10-08T02:33:00.422Z,14.07
2022-10-08T02:34:21.088Z,14.60
2022-10-08T02:35:32.598Z,17.80
2022-10-08T02:36:42.216Z,12.65
2022-10-08T02:38:01.140Z,18.25
2022-10-08T02:39:05.552Z,22.02
2022-10-08T02:40:15.066Z,15.05
2022-10-08T02:41:18.913Z,20.80
2022-10-08T02:42:24.351Z,16.60
2022-10-08T02:43:30.572Z,18.10
2022-10-08T02:44:46.302Z,15.07
2022-10-08T02:45:56.783Z,13.32
2022-10-08T02:47:01.561Z,14.30
2022-10-08T02:48:12.107Z,16.88
2022-10-08T02:49:24.526Z,14.13
2022-10-08T02:50:28.915Z,20.77
2022-10-08T02:51:31.963Z,13.75
2022-10-08T02:52:38.736Z,14.55
2022-10-08T02:53:41.412Z,18.42
2022-10-08T02:54:45.058Z,18.08
2022-10-08T02:56:27.570Z,13.90
2022-10-08T02:57:41.091Z,20.55
2022-10-08T02:58:43.861Z,15.73
2022-10-08T02:59:46.783Z,18.63
2022-10-08T03:01:04.487Z,16.95
2022-10-08T03:02:06.738Z,19.52
2022-10-08T03:03:15.464Z,19.23
2022-10-08T03:04:41.720Z,18.40
2022-10-08T03:05:44.397Z,15.23
2022-10-08T03:06:48.693Z,16.55
2022-10-08T03:07:52.050Z,16.67
2022-10-08T03:08:56.975Z,21.42
2022-10-08T03:10:03.037Z,15.13
2022-10-08T03:11:06.130Z,14.25
2022-10-08T03:12:08.039Z,15.70
2022-10-08T03:13:11.388Z,18.00
2022-10-08T03:14:15.639Z,13.40
2022-10-08T03:15:17.348Z,16.17
2022-10-08T03:16:22.771Z,17.02
2022-10-08T03:17:39.468Z,17.88
2022-10-08T03:18:42.317Z,15.10
2022-10-08T03:19:44.067Z,18.48
2022-10-08T03:20:50.736Z,9.53
2022-10-08T03:21:55.793Z,15.95
2022-10-08T03:23:00.757Z,18.73
2022-10-08T03:24:02.456Z,15.23
2022-10-08T03:25:05.116Z,15.80
2022-10-08T03:26:06.891Z,13.38
2022-10-08T03:27:08.573Z,19.80
2022-10-08T03:28:10.325Z,14.80
2022-10-08T03:29:12.126Z,15.57
2022-10-08T03:30:13.831Z,16.00
2022-10-08T03:31:15.554Z,18.57
2022-10-08T03:32:17.252Z,13.48
2022-10-08T03:33:18.909Z,16.00
2022-10-08T03:34:20.688Z,15.18
2022-10-08T03:35:22.336Z,21.65
2022-10-08T03:36:25.415Z,15.48
2022-10-08T03:37:27.062Z,15.82
2022-10-08T03:38:28.854Z,16.13
2022-10-08T03:39:30.541Z,16.92
2022-10-08T03:40:32.285Z,15.82
2022-10-08T03:41:33.980Z,22.50
2022-10-08T03:42:35.647Z,14.68
2022-10-08T03:43:37.817Z,16.88
2022-10-08T03:44:39.478Z,19.33
2022-10-08T03:45:52.578Z,16.48
2022-10-08T03:46:54.277Z,13.30
2022-10-08T03:47:55.940Z,20.00
2022-10-08T03:48:57.580Z,17.02
2022-10-08T03:49:59.225Z,19.17
2022-10-08T03:51:03.681Z,21.58
2022-10-08T03:52:05.349Z,20.07
2022-10-08T03:53:07.001Z,17.95
2022-10-08T03:54:08.743Z,18.85
2022-10-08T03:55:10.389Z,17.85
2022-10-08T03:56:20.471Z,18.52
2022-10-08T03:57:22.335Z,15.15
2022-10-08T03:58:23.988Z,17.80
2022-10-08T03:59:25.705Z,15.75
2022-10-08T04:00:27.338Z,18.50
2022-10-08T04:01:29.403Z,18.95
2022-10-08T04:02:32.507Z,15.17
2022-10-08T04:03:34.714Z,19.08
2022-10-08T04:04:36.409Z,16.17
2022-10-08T04:05:38.063Z,14.88
2022-10-08T04:06:39.747Z,24.35
2022-10-08T04:07:41.399Z,19.38
2022-10-08T04:08:43.587Z,15.77
2022-10-08T04:09:45.246Z,14.77
2022-10-08T04:10:47.179Z,13.80
2022-10-08T04:11:48.886Z,14.55
2022-10-08T04:12:50.535Z,19.27
2022-10-08T04:13:52.210Z,14.77
2022-10-08T04:14:53.937Z,15.07
2022-10-08T04:16:02.418Z,12.57
2022-10-08T04:17:04.165Z,20.02
2022-10-08T04:18:07.184Z,12.70
2022-10-08T04:19:11.890Z,12.02
2022-10-08T04:20:13.568Z,17.98
2022-10-08T04:21:17.737Z,16.42
2022-10-08T04:22:19.588Z,14.27
2022-10-08T04:23:21.226Z,15.10
2022-10-08T04:24:22.873Z,13.95
2022-10-08T04:25:24.551Z,17.98
2022-10-08T04:26:26.277Z,21.92
2022-10-08T04:27:27.971Z,21.17
2022-10-08T04:28:29.965Z,19.13
2022-10-08T04:29:32.047Z,23.40
2022-10-08T04:30:33.769Z,22.83
2022-10-08T04:31:35.515Z,22.45
2022-10-08T04:32:37.226Z,25.67
2022-10-08T04:33:39.208Z,26.03
2022-10-08T04:34:40.856Z,26.25
2022-10-08T04:35:42.492Z,24.65
2022-10-08T04:36:44.222Z,24.33
2022-10-08T04:37:45.891Z,23.27
2022-10-08T04:38:48.164Z,25.30
2022-10-08T04:39:50.011Z,23.48
2022-10-08T04:41:15.166Z,24.98
2022-10-08T04:42:16.832Z,19.52
2022-10-08T04:43:18.454Z,22.92
2022-10-08T04:44:20.216Z,21.77
2022-10-08T04:45:22.077Z,18.45
2022-10-08T04:46:23.824Z,17.02
2022-10-08T04:47:25.483Z,19.58
2022-10-08T04:48:27.395Z,23.58
2022-10-08T04:49:29.944Z,22.35
2022-10-08T04:50:31.598Z,20.25
2022-10-08T04:51:33.243Z,18.73
2022-10-08T04:52:34.952Z,19.13
2022-10-08T04:53:36.692Z,20.40
2022-10-08T04:54:38.342Z,18.07
2022-10-08T04:55:40.019Z,16.60
2022-10-08T04:56:41.719Z,15.77
2022-10-08T04:57:43.369Z,17.85
2022-10-08T04:58:45.542Z,14.77
2022-10-08T05:00:13.192Z,15.38
2022-10-08T05:01:10.752Z,17.80
2022-10-08T05:02:12.438Z,19.33
2022-10-08T05:03:14.228Z,12.25
2022-10-08T05:04:16.003Z,15.30
2022-10-08T05:05:17.645Z,13.60
2022-10-08T05:06:22.431Z,11.32
2022-10-08T05:07:24.689Z,16.05
2022-10-08T05:08:26.388Z,19.23
2022-10-08T05:09:28.021Z,11.38
2022-10-08T05:10:29.653Z,14.70
2022-10-08T05:11:32.223Z,11.18
2022-10-08T05:12:33.940Z,10.93
2022-10-08T05:13:36.265Z,13.68
2022-10-08T05:14:37.900Z,8.05
2022-10-08T05:15:39.614Z,12.83
2022-10-08T05:16:41.318Z,19.15
2022-10-08T05:17:42.984Z,11.77
2022-10-08T05:18:45.149Z,12.70
2022-10-08T05:19:46.775Z,13.95
2022-10-08T05:20:48.438Z,9.55
2022-10-08T05:21:50.067Z,10.43
2022-10-08T05:22:51.709Z,14.55
2022-10-08T05:23:55.359Z,11.18
2022-10-08T05:24:57.012Z,11.52
2022-10-08T05:25:58.783Z,12.73
2022-10-08T05:27:00.439Z,8.85
2022-10-08T05:28:03.550Z,12.40
2022-10-08T05:29:05.998Z,15.05
2022-10-08T05:30:08.308Z,15.68
2022-10-08T05:31:10.125Z,14.68
2022-10-08T05:32:11.846Z,12.18
2022-10-08T05:33:13.509Z,14.07
2022-10-08T05:34:15.416Z,25.05
2022-10-08T05:35:17.135Z,17.45
2022-10-08T05:36:21.488Z,18.67
2022-10-08T05:37:23.138Z,20.50
2022-10-08T05:38:24.826Z,17.42
2022-10-08T05:39:26.535Z,13.40
2022-10-08T05:40:29.632Z,18.25
2022-10-08T05:41:34.125Z,11.35
2022-10-08T05:42:35.837Z,11.55
2022-10-08T05:43:37.526Z,17.10
2022-10-08T05:44:40.569Z,14.07
2022-10-08T05:45:50.912Z,14.90
2022-10-08T05:46:52.599Z,20.37
2022-10-08T05:47:55.608Z,21.60
2022-10-08T05:48:59.023Z,20.67
2022-10-08T05:50:00.688Z,13.25
2022-10-08T05:51:10.851Z,11.57
2022-10-08T05:52:12.499Z,15.45
2022-10-08T05:53:14.124Z,11.73
2022-10-08T05:54:17.463Z,19.52
2022-10-08T05:55:19.250Z,15.80
2022-10-08T05:56:23.911Z,21.45
2022-10-08T05:57:25.557Z,14.13
2022-10-08T05:58:30.378Z,18.70
2022-10-08T05:59:32.445Z,18.70
2022-10-08T06:00:34.113Z,19.75
2022-10-08T06:01:35.843Z,17.65
2022-10-08T06:02:37.568Z,17.77
2022-10-08T06:03:39.317Z,17.70
2022-10-08T06:04:41.016Z,17.55
2022-10-08T06:05:42.736Z,17.65
2022-10-08T06:06:45.253Z,20.45
2022-10-08T06:07:46.908Z,16.77
2022-10-08T06:08:52.843Z,17.60
2022-10-08T06:09:54.576Z,17.55
2022-10-08T06:10:56.545Z,20.85
2022-10-08T06:11:58.537Z,16.63
2022-10-08T06:13:00.199Z,15.55
2022-10-08T06:14:03.705Z,19.48
2022-10-08T06:15:05.884Z,19.90
2022-10-08T06:16:10.606Z,15.57
2022-10-08T06:17:12.300Z,20.15
2022-10-08T06:18:13.952Z,13.20
2022-10-08T06:19:15.792Z,15.23
2022-10-08T06:20:17.507Z,15.65
2022-10-08T06:21:25.309Z,13.95
2022-10-08T06:22:26.956Z,15.10
2022-10-08T06:23:28.615Z,12.13
2022-10-08T06:24:30.343Z,13.40
2022-10-08T06:25:35.721Z,15.98
2022-10-08T06:26:40.022Z,10.95
2022-10-08T06:27:41.693Z,10.25
2022-10-08T06:28:44.081Z,10.87
2022-10-08T06:29:45.801Z,12.18
2022-10-08T06:30:47.464Z,14.18
2022-10-08T06:31:49.222Z,9.70
2022-10-08T06:32:50.909Z,11.63
2022-10-08T06:33:59.119Z,11.32
2022-10-08T06:35:00.791Z,11.40
2022-10-08T06:36:16.795Z,10.02
2022-10-08T06:37:18.467Z,11.23
2022-10-08T06:38:20.163Z,9.20
2022-10-08T06:39:21.964Z,9.60
2022-10-08T06:40:23.673Z,14.95
2022-10-08T06:41:26.680Z,12.05
2022-10-08T06:42:28.366Z,8.93
2022-10-08T06:43:30.195Z,14.00
2022-10-08T06:44:31.833Z,9.77
2022-10-08T06:45:39.051Z,17.08
2022-10-08T06:46:41.071Z,9.57
2022-10-08T06:47:42.746Z,10.18
2022-10-08T06:48:44.947Z,9.25
2022-10-08T06:49:46.594Z,12.93
2022-10-08T06:50:48.243Z,15.40
2022-10-08T06:51:49.897Z,14.38
2022-10-08T06:52:51.600Z,11.38
2022-10-08T06:53:55.469Z,11.55
2022-10-08T06:54:57.112Z,9.23
2022-10-08T06:56:04.231Z,11.98
2022-10-08T06:57:05.985Z,7.00
2022-10-08T06:58:07.850Z,12.68
2022-10-08T06:59:10.077Z,9.15
2022-10-08T07:00:12.173Z,9.30
2022-10-08T07:01:15.726Z,8.07
2022-10-08T07:02:17.425Z,7.72
2022-10-08T07:03:19.107Z,10.55
2022-10-08T07:04:20.919Z,7.28
2022-10-08T07:05:23.179Z,10.32
2022-10-08T07:06:25.891Z,12.07
2022-10-08T07:07:27.658Z,9.55
2022-10-08T07:08:30.266Z,18.63
2022-10-08T07:09:31.991Z,8.40
2022-10-08T07:10:33.976Z,5.80
2022-10-08T07:11:35.830Z,11.45
2022-10-08T07:12:37.501Z,9.55
2022-10-08T07:13:39.974Z,8.38
2022-10-08T07:14:41.721Z,8.63
2022-10-08T07:15:43.405Z,8.60
2022-10-08T07:16:45.144Z,7.75
2022-10-08T07:17:46.827Z,13.88
2022-10-08T07:18:50.843Z,9.75
2022-10-08T07:19:52.748Z,9.15
2022-10-08T07:20:56.268Z,8.77
2022-10-08T07:22:01.146Z,9.63
2022-10-08T07:23:03.214Z,9.00
2022-10-08T07:24:05.668Z,6.88
2022-10-08T07:25:07.698Z,11.13
2022-10-08T07:26:18.385Z,13.20
2022-10-08T07:27:20.214Z,7.22
2022-10-08T07:28:21.898Z,8.10
2022-10-08T07:29:24.964Z,10.88
2022-10-08T07:30:26.654Z,8.55
2022-10-08T07:31:31.481Z,7.13
2022-10-08T07:32:33.238Z,9.10
2022-10-08T07:33:35.091Z,5.93
2022-10-08T07:34:36.816Z,8.13
2022-10-08T07:35:38.866Z,11.73
2022-10-08T07:36:41.237Z,9.65
2022-10-08T07:37:43.192Z,9.40
2022-10-08T07:38:45.086Z,12.48
2022-10-08T07:39:46.928Z,12.73
2022-10-08T07:40:50.957Z,9.20
2022-10-08T07:41:52.622Z,9.27
2022-10-08T07:42:54.729Z,6.90
2022-10-08T07:43:59.664Z,7.22
2022-10-08T07:45:01.379Z,13.10
2022-10-08T07:46:05.829Z,8.38
2022-10-08T07:47:09.204Z,10.80
2022-10-08T07:48:11.088Z,8.55
2022-10-08T07:49:13.619Z,7.88
2022-10-08T07:50:15.379Z,6.68
2022-10-08T07:51:19.737Z,7.22
2022-10-08T07:52:21.374Z,7.87
2022-10-08T07:53:23.237Z,9.13
2022-10-08T07:54:24.880Z,6.93
2022-10-08T07:55:26.535Z,6.70
2022-10-08T07:56:28.542Z,9.27
2022-10-08T07:57:30.228Z,7.35
2022-10-08T07:58:32.001Z,10.30
2022-10-08T07:59:33.663Z,11.05
2022-10-08T08:00:37.704Z,10.90
2022-10-08T08:01:40.859Z,12.02
2022-10-08T08:02:42.529Z,6.20
2022-10-08T08:03:44.944Z,8.20
2022-10-08T08:04:46.569Z,8.60
2022-10-08T08:05:48.301Z,10.95
2022-10-08T08:06:52.341Z,8.27
2022-10-08T08:07:54.021Z,6.93
2022-10-08T08:08:56.821Z,10.80
2022-10-08T08:09:58.507Z,8.15
2022-10-08T08:11:02.260Z,14.50
2022-10-08T08:12:03.934Z,7.95
2022-10-08T08:13:05.609Z,11.80
2022-10-08T08:14:08.266Z,8.10
2022-10-08T08:15:10.456Z,9.88
2022-10-08T08:16:15.174Z,7.57
2022-10-08T08:17:16.873Z,5.90
2022-10-08T08:18:18.696Z,6.03
2022-10-08T08:19:20.368Z,5.95
2022-10-08T08:20:22.079Z,8.95
2022-10-08T08:21:27.176Z,8.68
2022-10-08T08:22:37.220Z,6.38
2022-10-08T08:23:41.611Z,5.10
2022-10-08T08:24:46.313Z,5.22
2022-10-08T08:25:47.967Z,9.85
2022-10-08T08:26:50.812Z,9.27
2022-10-08T08:27:52.538Z,5.22
2022-10-08T08:28:56.880Z,10.95
2022-10-08T08:29:58.549Z,10.02
2022-10-08T08:31:28.732Z,12.32
2022-10-08T08:32:30.400Z,9.55
2022-10-08T08:33:32.068Z,8.48
2022-10-08T08:34:33.815Z,6.20
2022-10-08T08:35:35.546Z,8.50
2022-10-08T08:36:41.520Z,8.90
2022-10-08T08:37:43.236Z,10.57
2022-10-08T08:38:45.309Z,10.55
2022-10-08T08:39:46.961Z,8.30
2022-10-08T08:40:48.729Z,7.05
2022-10-08T08:41:53.806Z,6.07
2022-10-08T08:42:57.158Z,8.27
2022-10-08T08:44:01.355Z,8.40
2022-10-08T08:45:34.303Z,9.97
2022-10-08T08:46:41.091Z,17.30
2022-10-08T08:47:53.187Z,7.43
2022-10-08T08:48:59.304Z,6.75
2022-10-08T08:50:06.259Z,6.95
2022-10-08T08:51:07.978Z,6.65
2022-10-08T08:52:16.017Z,6.47
2022-10-08T08:53:18.634Z,9.05
2022-10-08T08:54:20.359Z,7.78
2022-10-08T08:55:47.236Z,9.68
2022-10-08T08:56:49.745Z,9.33
2022-10-08T08:58:07.303Z,6.32
2022-10-08T08:59:29.377Z,10.20
2022-10-08T09:00:41.668Z,10.95
2022-10-08T09:01:46.333Z,9.48
2022-10-08T09:03:03.924Z,6.40
2022-10-08T09:04:18.145Z,6.68
2022-10-08T09:05:21.972Z,7.10
2022-10-08T09:06:27.806Z,7.72
2022-10-08T09:07:50.033Z,9.55
2022-10-08T09:09:31.118Z,7.60
2022-10-08T09:10:42.862Z,8.48
2022-10-08T09:11:44.623Z,13.43
2022-10-08T09:12:48.001Z,8.07
2022-10-08T09:13:57.587Z,11.85
2022-10-08T09:15:00.968Z,13.10
2022-10-08T09:16:02.914Z,7.03
2022-10-08T09:17:17.414Z,14.18
2022-10-08T09:18:19.086Z,16.08
2022-10-08T09:19:21.217Z,8.75
2022-10-08T09:20:24.643Z,13.13
2022-10-08T09:21:30.701Z,8.93
2022-10-08T09:22:37.920Z,12.50
2022-10-08T09:23:39.581Z,12.00
2022-10-08T09:24:41.434Z,7.97
2022-10-08T09:25:48.066Z,7.25
2022-10-08T09:26:52.017Z,7.43
2022-10-08T09:27:53.632Z,8.93
2022-10-08T09:28:57.634Z,9.30
2022-10-08T09:29:59.301Z,13.68
2022-10-08T09:31:13.586Z,5.93
2022-10-08T09:32:20.279Z,5.70
2022-10-08T09:33:29.558Z,7.88
2022-10-08T09:34:31.538Z,8.63
2022-10-08T09:35:36.553Z,7.68
2022-10-08T09:36:50.951Z,12.38
2022-10-08T09:37:53.175Z,6.68
2022-10-08T09:38:59.309Z,7.18
2022-10-08T09:40:22.551Z,11.52
2022-10-08T09:41:28.527Z,8.20
2022-10-08T09:42:30.212Z,7.67
2022-10-08T09:43:35.979Z,5.32
2022-10-08T09:44:46.207Z,9.63
2022-10-08T09:45:49.516Z,9.63
2022-10-08T09:47:05.173Z,7.93
2022-10-08T09:48:23.038Z,6.72
2022-10-08T09:49:38.227Z,8.20
2022-10-08T09:51:06.933Z,6.72
2022-10-08T09:52:19.526Z,5.93
2022-10-08T09:53:23.899Z,9.57
2022-10-08T09:54:29.702Z,10.57
2022-10-08T09:55:35.296Z,8.10
2022-10-08T09:56:37.293Z,10.25
2022-10-08T09:57:51.175Z,3.83
2022-10-08T09:58:59.125Z,6.80
2022-10-08T10:00:02.891Z,7.88
2022-10-08T10:01:13.047Z,7.03
2022-10-08T10:02:23.584Z,9.55
2022-10-08T10:03:26.942Z,7.82
2022-10-08T10:04:36.323Z,9.20
2022-10-08T10:05:38.155Z,8.57
2022-10-08T10:06:43.334Z,9.57
2022-10-08T10:07:45.910Z,8.65
2022-10-08T10:08:54.250Z,7.38
2022-10-08T10:09:58.697Z,4.78
2022-10-08T10:11:00.491Z,13.52
2022-10-08T10:12:36.614Z,9.20
2022-10-08T10:13:40.947Z,8.50
2022-10-08T10:14:45.170Z,5.70
2022-10-08T10:16:06.695Z,7.00
2022-10-08T10:17:50.633Z,5.30
2022-10-08T10:19:23.954Z,8.15
2022-10-08T10:20:37.588Z,5.30
2022-10-08T10:21:50.922Z,6.70
2022-10-08T10:23:10.525Z,5.18
2022-10-08T10:24:24.268Z,4.75
2022-10-08T10:25:46.347Z,5.68
2022-10-08T10:26:52.486Z,5.45
2022-10-08T10:28:04.031Z,9.43
2022-10-08T10:29:19.844Z,5.07
2022-10-08T10:30:24.126Z,6.40
2022-10-08T10:31:48.567Z,6.65
2022-10-08T10:33:15.985Z,12.00
2022-10-08T10:34:25.018Z,5.32
2022-10-08T10:35:30.426Z,9.05
2022-10-08T10:36:37.635Z,8.88
2022-10-08T10:37:48.592Z,5.75
2022-10-08T10:39:22.000Z,4.47
2022-10-08T10:41:03.993Z,6.40
2022-10-08T10:42:14.818Z,7.97
2022-10-08T10:43:34.169Z,8.30
2022-10-08T10:44:53.456Z,5.47
2022-10-08T10:46:18.953Z,8.50
2022-10-08T10:47:30.996Z,4.85
2022-10-08T10:48:33.712Z,6.07
2022-10-08T10:49:38.499Z,5.80
2022-10-08T10:51:04.039Z,9.40
2022-10-08T10:52:33.622Z,5.32
2022-10-08T10:53:53.166Z,5.68
2022-10-08T10:55:18.777Z,4.13
2022-10-08T10:56:22.315Z,8.77
2022-10-08T10:57:32.895Z,6.45
2022-10-08T10:59:11.105Z,5.50
2022-10-08T11:00:22.451Z,6.25
2022-10-08T11:01:53.925Z,6.78
2022-10-08T11:03:36.511Z,4.72
2022-10-08T11:05:01.400Z,6.75
2022-10-08T11:06:33.842Z,6.50
2022-10-08T11:07:46.571Z,3.72
2022-10-08T11:09:07.108Z,5.22
2022-10-08T11:10:40.162Z,5.07
2022-10-08T11:11:57.206Z,5.38
2022-10-08T11:13:46.269Z,4.82
2022-10-08T11:15:12.494Z,5.00
2022-10-08T11:16:35.462Z,9.57
2022-10-08T11:17:45.753Z,3.08
2022-10-08T11:19:02.905Z,5.78
2022-10-08T11:20:10.431Z,2.30
2022-10-08T11:21:21.212Z,4.60
2022-10-08T11:22:34.971Z,4.60
2022-10-08T11:24:12.545Z,5.17
2022-10-08T11:25:55.986Z,4.15
2022-10-08T11:27:17.119Z,5.47
2022-10-08T11:28:47.058Z,7.57
2022-10-08T11:30:14.634Z,3.95
2022-10-08T11:31:42.602Z,4.22
2022-10-08T11:32:54.160Z,3.75
2022-10-08T11:33:57.386Z,6.75
2022-10-08T11:35:17.581Z,3.80
2022-10-08T11:36:23.775Z,2.63
2022-10-08T11:38:01.594Z,3.80
2022-10-08T11:39:20.359Z,2.65
2022-10-08T11:40:24.893Z,1.67
2022-10-08T11:41:26.554Z,5.90
2022-10-08T11:43:03.736Z,5.25
2022-10-08T11:44:10.479Z,3.13
2022-10-08T11:45:24.285Z,5.05
2022-10-08T11:46:36.678Z,1.38
2022-10-08T11:47:41.624Z,8.95
2022-10-08T11:48:43.347Z,5.60
2022-10-08T11:49:56.400Z,8.50
2022-10-08T11:51:27.170Z,5.30
2022-10-08T11:52:30.483Z,2.83
2022-10-08T11:53:32.213Z,4.75
2022-10-08T11:54:34.895Z,5.22
2022-10-08T11:55:37.752Z,4.95
2022-10-08T11:56:52.075Z,3.65
2022-10-08T11:58:09.747Z,4.47
2022-10-08T11:59:20.512Z,4.03
2022-10-08T12:00:45.039Z,4.68
2022-10-08T12:01:59.313Z,6.73
2022-10-08T12:03:02.444Z,4.30
2022-10-08T12:04:28.900Z,2.35
2022-10-08T12:05:47.879Z,3.17
2022-10-08T12:07:05.288Z,10.27
2022-10-08T12:08:06.989Z,6.30
2022-10-08T12:09:21.537Z,7.28
2022-10-08T12:10:33.178Z,6.45
2022-10-08T12:11:37.897Z,4.93
2022-10-08T12:12:52.575Z,7.78
2022-10-08T12:14:13.064Z,3.43
2022-10-08T12:15:24.060Z,4.70
2022-10-08T12:16:48.475Z,5.93
2022-10-08T12:18:26.302Z,5.93
2022-10-08T12:19:34.061Z,5.35
2022-10-08T12:20:38.015Z,3.88
2022-10-08T12:21:49.328Z,5.78
2022-10-08T12:23:35.654Z,2.63
2022-10-08T12:24:37.277Z,6.22
2022-10-08T12:26:02.691Z,2.72
2022-10-08T12:27:23.927Z,2.13
2022-10-08T12:28:28.597Z,2.15
2022-10-08T12:29:53.577Z,3.78
2022-10-08T12:31:02.668Z,5.25
2022-10-08T12:32:04.385Z,2.35
2022-10-08T12:33:10.454Z,4.00
2022-10-08T12:34:18.967Z,5.88
2022-10-08T12:35:28.171Z,3.83
2022-10-08T12:36:43.313Z,5.65
2022-10-08T12:37:53.815Z,9.82
2022-10-08T12:39:10.858Z,2.83
2022-10-08T12:40:31.848Z,3.65
2022-10-08T12:41:37.447Z,5.18
2022-10-08T12:42:40.945Z,4.97
2022-10-08T12:44:12.144Z,2.78
2022-10-08T12:45:26.838Z,4.90
2022-10-08T12:46:52.722Z,2.83
2022-10-08T12:48:34.532Z,6.38
2022-10-08T12:49:41.578Z,4.05
2022-10-08T12:51:09.248Z,5.97
2022-10-08T12:52:16.613Z,6.60
2022-10-08T12:53:18.831Z,2.65
2022-10-08T12:54:24.248Z,5.10
2022-10-08T12:55:26.589Z,5.53
2022-10-08T12:56:29.734Z,7.22
2022-10-08T12:57:38.087Z,2.97
2022-10-08T12:58:39.866Z,4.80
2022-10-08T12:59:42.283Z,3.92
2022-10-08T13:00:45.584Z,2.67
2022-10-08T13:01:49.565Z,1.90
2022-10-08T13:03:07.502Z,5.10
2022-10-08T13:04:20.548Z,5.45
2022-10-08T13:05:31.392Z,7.68
2022-10-08T13:06:34.071Z,3.72
2022-10-08T13:07:36.026Z,7.95
2022-10-08T13:08:39.871Z,3.55
2022-10-08T13:09:44.471Z,4.70
2022-10-08T13:10:46.286Z,4.22
2022-10-08T13:11:52.176Z,5.72
2022-10-08T13:13:33.029Z,3.67
2022-10-08T13:14:40.450Z,2.10
2022-10-08T13:15:42.251Z,7.55
2022-10-08T13:16:47.693Z,1.70
2022-10-08T13:17:50.010Z,5.43
2022-10-08T13:18:57.323Z,4.32
2022-10-08T13:20:11.605Z,4.68
2022-10-08T13:21:31.781Z,3.47
2022-10-08T13:22:33.516Z,2.83
2022-10-08T13:23:42.002Z,4.57
2022-10-08T13:24:44.413Z,2.95
2022-10-08T13:25:46.106Z,7.33
2022-10-08T13:26:50.412Z,1.40
2022-10-08T13:28:14.783Z,2.83
2022-10-08T13:29:22.606Z,1.63
2022-10-08T13:30:28.737Z,6.18
2022-10-08T13:31:32.136Z,6.35
2022-10-08T13:32:35.304Z,2.80
2022-10-08T13:33:38.334Z,3.33
2022-10-08T13:34:42.465Z,2.67
2022-10-08T13:35:50.005Z,3.22
2022-10-08T13:36:55.486Z,5.03
2022-10-08T13:37:57.258Z,2.60
2022-10-08T13:38:59.014Z,3.95
2022-10-08T13:40:20.769Z,2.83
2022-10-08T13:41:23.932Z,5.13
2022-10-08T13:42:34.271Z,3.47
2022-10-08T13:43:35.975Z,3.60
2022-10-08T13:44:40.372Z,3.53
2022-10-08T13:45:42.060Z,5.38
2022-10-08T13:46:43.750Z,3.45
2022-10-08T13:47:46.247Z,2.63
2022-10-08T13:48:48.091Z,5.22
2022-10-08T13:49:50.592Z,5.35
2022-10-08T13:50:53.230Z,3.55
2022-10-08T13:51:56.648Z,4.93
2022-10-08T13:53:01.122Z,3.33
2022-10-08T13:54:02.787Z,3.40
2022-10-08T13:55:08.156Z,4.00
2022-10-08T13:56:09.807Z,5.55
2022-10-08T13:57:12.154Z,3.45
2022-10-08T13:58:16.224Z,6.97
2022-10-08T13:59:19.416Z,7.38
2022-10-08T14:00:22.569Z,14.23
2022-10-08T14:01:24.334Z,4.75
2022-10-08T14:02:26.139Z,4.07
2022-10-08T14:03:27.854Z,11.95
2022-10-08T14:04:29.562Z,4.50
2022-10-08T14:05:35.150Z,8.63
2022-10-08T14:06:37.878Z,7.97
2022-10-08T14:07:39.676Z,4.07
2022-10-08T14:08:41.338Z,4.50
2022-10-08T14:09:43.254Z,5.45
2022-10-08T14:10:45.452Z,6.60
2022-10-08T14:11:50.585Z,7.78
2022-10-08T14:12:52.321Z,5.03
2022-10-08T14:13:53.980Z,7.25
2022-10-08T14:14:56.038Z,3.83
2022-10-08T14:15:57.828Z,5.63
2022-10-08T14:16:59.868Z,7.13
2022-10-08T14:18:01.533Z,4.65
2022-10-08T14:19:03.932Z,7.17
2022-10-08T14:20:07.397Z,5.18
2022-10-08T14:21:12.734Z,5.45
2022-10-08T14:22:14.627Z,4.00
2022-10-08T14:23:16.346Z,3.70
2022-10-08T14:24:18.478Z,5.53
2022-10-08T14:25:23.037Z,8.13
2022-10-08T14:26:24.687Z,8.05
2022-10-08T14:27:26.402Z,7.10
2022-10-08T14:28:28.097Z,13.55
2022-10-08T14:29:29.929Z,3.73
2022-10-08T14:30:31.589Z,5.95
2022-10-08T14:31:33.384Z,8.23
2022-10-08T14:32:35.626Z,6.57
2022-10-08T14:33:37.376Z,5.47
2022-10-08T14:34:39.320Z,4.13
2022-10-08T14:35:41.110Z,6.20
2022-10-08T14:36:42.914Z,4.35
2022-10-08T14:37:44.605Z,8.02